createdAt,value
2022-08-26T00:02:11.569Z,22.20
2022-08-26T00:04:39.826Z,22.04
2022-08-26T00:07:09.126Z,22.06
2022-08-26T00:09:38.881Z,22.06
2022-08-26T00:12:07.729Z,22.01
2022-08-26T00:14:37.455Z,22.02
2022-08-26T00:17:05.800Z,21.91
2022-08-26T00:19:36.581Z,21.86
2022-08-26T00:22:04.494Z,21.89
2022-08-26T00:24:33.706Z,21.91
2022-08-26T00:27:01.536Z,21.98
2022-08-26T00:29:31.969Z,21.94
2022-08-26T00:32:04.106Z,21.88
2022-08-26T00:34:32.055Z,21.88
2022-08-26T00:36:59.867Z,21.94
2022-08-26T00:39:27.897Z,21.85
2022-08-26T00:41:57.221Z,21.96
2022-08-26T00:44:25.285Z,21.91
2022-08-26T00:46:58.281Z,22.02
2022-08-26T00:49:41.511Z,22.02
2022-08-26T00:52:13.238Z,22.09
2022-08-26T00:54:47.647Z,22.15
2022-08-26T00:57:19.466Z,22.13
2022-08-26T00:59:50.024Z,21.95
2022-08-26T01:02:21.210Z,21.96
2022-08-26T01:04:54.405Z,21.95
2022-08-26T01:07:26.066Z,21.92
2022-08-26T01:09:54.294Z,21.91
2022-08-26T01:12:25.758Z,21.88
2022-08-26T01:14:53.838Z,21.85
2022-08-26T01:17:21.825Z,21.89
2022-08-26T01:19:53.420Z,21.89
2022-08-26T01:22:28.187Z,21.92
2022-08-26T01:24:59.710Z,21.82
2022-08-26T01:27:32.668Z,21.75
2022-08-26T01:30:02.203Z,21.67
2022-08-26T01:32:32.905Z,21.67
2022-08-26T01:35:01.481Z,21.74
2022-08-26T01:37:36.543Z,21.69
2022-08-26T01:40:10.646Z,21.67
2022-08-26T01:42:38.637Z,21.69
2022-08-26T01:45:11.228Z,21.79
2022-08-26T01:47:39.885Z,21.62
2022-08-26T01:50:15.693Z,21.73
2022-08-26T01:52:57.052Z,21.74
2022-08-26T01:55:27.706Z,21.74
2022-08-26T01:58:04.611Z,21.71
2022-08-26T02:00:34.985Z,21.58
2022-08-26T02:03:18.730Z,21.65
2022-08-26T02:05:48.741Z,21.64
2022-08-26T02:08:24.735Z,21.74
2022-08-26T02:10:55.517Z,21.64
2022-08-26T02:13:26.615Z,21.64
2022-08-26T02:15:55.152Z,21.59
2022-08-26T02:18:24.156Z,21.55
2022-08-26T02:20:54.925Z,21.68
2022-08-26T02:23:24.053Z,21.59
2022-08-26T02:26:00.476Z,21.61
2022-08-26T02:28:32.063Z,21.59
2022-08-26T02:31:00.181Z,21.55
2022-08-26T02:33:30.598Z,21.55
2022-08-26T02:35:59.009Z,21.54
2022-08-26T02:38:26.863Z,21.51
2022-08-26T02:40:56.320Z,21.48
2022-08-26T02:43:31.554Z,21.47
2022-08-26T02:46:02.438Z,21.48
2022-08-26T02:48:31.614Z,21.47
2022-08-26T02:51:00.150Z,21.47
2022-08-26T02:53:28.168Z,21.44
2022-08-26T02:56:01.119Z,21.33
2022-08-26T02:58:29.270Z,21.43
2022-08-26T03:00:57.162Z,21.34
2022-08-26T03:03:25.210Z,21.33
2022-08-26T03:05:53.193Z,21.43
2022-08-26T03:08:22.239Z,21.50
2022-08-26T03:10:50.789Z,21.40
2022-08-26T03:13:19.985Z,21.41
2022-08-26T03:15:47.936Z,21.35
2022-08-26T03:18:16.169Z,21.43
2022-08-26T03:20:44.100Z,21.47
2022-08-26T03:23:12.600Z,21.47
2022-08-26T03:25:43.012Z,21.50
2022-08-26T03:28:11.185Z,21.51
2022-08-26T03:30:44.202Z,21.51
2022-08-26T03:33:14.576Z,21.44
2022-08-26T03:35:43.436Z,21.53
2022-08-26T03:38:12.041Z,21.40
2022-08-26T03:40:40.063Z,21.33
2022-08-26T03:43:10.189Z,21.37
2022-08-26T03:45:40.881Z,21.35
2022-08-26T03:48:09.259Z,21.37
2022-08-26T03:50:37.208Z,21.38
2022-08-26T03:53:07.416Z,21.34
2022-08-26T03:55:41.036Z,21.24
2022-08-26T03:58:09.082Z,21.28
2022-08-26T04:00:37.185Z,21.31
2022-08-26T04:03:06.588Z,21.37
2022-08-26T04:05:38.534Z,21.40
2022-08-26T04:08:06.664Z,21.44
2022-08-26T04:10:34.581Z,21.40
2022-08-26T04:13:02.484Z,21.37
2022-08-26T04:15:30.378Z,21.44
2022-08-26T04:17:58.255Z,21.43
2022-08-26T04:20:28.920Z,21.41
2022-08-26T04:22:57.950Z,21.37
2022-08-26T04:25:25.615Z,21.27
2022-08-26T04:27:53.458Z,21.40
2022-08-26T04:30:21.893Z,21.38
2022-08-26T04:32:49.790Z,21.35
2022-08-26T04:35:17.767Z,21.31
2022-08-26T04:37:47.836Z,21.30
2022-08-26T04:40:15.761Z,21.22
2022-08-26T04:42:44.323Z,21.14
2022-08-26T04:45:13.442Z,21.19
2022-08-26T04:47:42.098Z,21.17
2022-08-26T04:50:11.045Z,20.99
2022-08-26T04:52:38.805Z,21.03
2022-08-26T04:55:08.818Z,21.08
2022-08-26T04:57:36.811Z,21.08
2022-08-26T05:00:06.129Z,21.06
2022-08-26T05:02:34.329Z,20.99
2022-08-26T05:05:02.407Z,20.92
2022-08-26T05:07:31.184Z,20.86
2022-08-26T05:10:00.229Z,20.82
2022-08-26T05:12:29.586Z,20.80
2022-08-26T05:14:57.643Z,20.93
2022-08-26T05:17:27.134Z,20.87
2022-08-26T05:19:55.467Z,21.04
2022-08-26T05:22:23.338Z,20.94
2022-08-26T05:24:51.147Z,21.13
2022-08-26T05:27:19.437Z,21.07
2022-08-26T05:29:54.521Z,21.10
2022-08-26T05:32:22.614Z,21.17
2022-08-26T05:34:55.357Z,21.27
2022-08-26T05:37:23.213Z,21.34
2022-08-26T05:39:51.540Z,21.33
2022-08-26T05:42:19.894Z,21.31
2022-08-26T05:44:53.906Z,21.27
2022-08-26T05:47:24.103Z,21.20
2022-08-26T05:49:52.259Z,21.03
2022-08-26T05:52:20.915Z,21.22
2022-08-26T05:54:52.629Z,21.17
2022-08-26T05:57:20.463Z,21.16
2022-08-26T05:59:52.718Z,21.14
2022-08-26T06:02:20.625Z,21.35
2022-08-26T06:04:48.575Z,21.27
2022-08-26T06:07:17.045Z,21.35
2022-08-26T06:09:46.383Z,21.23
2022-08-26T06:12:15.812Z,21.22
2022-08-26T06:14:46.540Z,21.22
2022-08-26T06:17:18.254Z,21.23
2022-08-26T06:19:46.099Z,21.27
2022-08-26T06:22:27.850Z,21.27
2022-08-26T06:25:13.225Z,21.17
2022-08-26T06:27:41.123Z,21.13
2022-08-26T06:30:10.393Z,21.08
2022-08-26T06:32:39.658Z,21.19
2022-08-26T06:35:12.277Z,21.22
2022-08-26T06:37:40.411Z,21.24
2022-08-26T06:40:10.103Z,21.24
2022-08-26T06:42:39.620Z,21.17
2022-08-26T06:45:08.515Z,21.13
2022-08-26T06:47:36.938Z,21.10
2022-08-26T06:50:07.013Z,21.10
2022-08-26T06:52:35.239Z,21.16
2022-08-26T06:55:03.511Z,21.10
2022-08-26T06:57:32.951Z,21.11
2022-08-26T07:00:03.241Z,21.16
2022-08-26T07:02:32.036Z,21.10
2022-08-26T07:05:00.016Z,21.16
2022-08-26T07:07:29.519Z,21.20
2022-08-26T07:09:57.703Z,21.16
2022-08-26T07:12:25.801Z,21.27
2022-08-26T07:14:54.018Z,21.33
2022-08-26T07:17:21.830Z,21.35
2022-08-26T07:19:53.638Z,21.37
2022-08-26T07:22:21.488Z,21.40
2022-08-26T07:24:51.007Z,21.43
2022-08-26T07:27:18.933Z,21.43
2022-08-26T07:29:46.935Z,21.48
2022-08-26T07:32:16.194Z,21.41
2022-08-26T07:34:44.510Z,21.54
2022-08-26T07:37:12.461Z,21.51
2022-08-26T07:39:41.783Z,21.45
2022-08-26T07:42:14.358Z,21.37
2022-08-26T07:44:43.178Z,21.43
2022-08-26T07:47:25.417Z,21.33
2022-08-26T07:49:55.516Z,21.37
2022-08-26T07:52:27.452Z,21.54
2022-08-26T07:54:56.993Z,21.58
2022-08-26T07:57:26.534Z,21.67
2022-08-26T07:59:55.228Z,21.78
2022-08-26T08:02:23.722Z,21.84
2022-08-26T08:04:52.335Z,21.77
2022-08-26T08:07:20.473Z,21.84
2022-08-26T08:09:49.611Z,21.96
2022-08-26T08:12:18.015Z,22.16
2022-08-26T08:14:48.738Z,22.15
2022-08-26T08:17:17.103Z,22.30
2022-08-26T08:19:45.039Z,22.37
2022-08-26T08:22:17.763Z,22.29
2022-08-26T08:24:49.777Z,22.16
2022-08-26T08:27:23.894Z,22.19
2022-08-26T08:29:55.131Z,22.05
2022-08-26T08:32:23.844Z,22.06
2022-08-26T08:34:51.865Z,22.02
2022-08-26T08:37:20.167Z,22.09
2022-08-26T08:39:48.995Z,22.04
2022-08-26T08:42:36.645Z,22.02
2022-08-26T08:45:11.491Z,21.99
2022-08-26T08:47:43.907Z,22.09
2022-08-26T08:50:22.769Z,22.09
2022-08-26T08:52:55.654Z,22.28
2022-08-26T08:55:29.012Z,22.29
2022-08-26T08:58:04.668Z,22.36
2022-08-26T09:00:44.168Z,22.23
2022-08-26T09:03:25.116Z,22.16
2022-08-26T09:05:55.431Z,22.12
2022-08-26T09:08:28.278Z,21.95
2022-08-26T09:10:59.213Z,21.96
2022-08-26T09:13:27.668Z,21.95
2022-08-26T09:16:06.711Z,22.02
2022-08-26T09:18:49.850Z,22.06
2022-08-26T09:21:20.611Z,22.16
2022-08-26T09:23:52.112Z,21.98
2022-08-26T09:26:25.945Z,21.89
2022-08-26T09:28:58.868Z,21.82
2022-08-26T09:31:29.566Z,21.75
2022-08-26T09:34:08.698Z,21.74
2022-08-26T09:36:41.476Z,21.74
2022-08-26T09:39:27.390Z,21.82
2022-08-26T09:42:14.454Z,21.85
2022-08-26T09:44:57.009Z,21.84
2022-08-26T09:47:29.752Z,21.86
2022-08-26T09:50:00.815Z,21.91
2022-08-26T09:52:30.054Z,21.92
2022-08-26T09:55:11.377Z,21.86
2022-08-26T09:57:46.999Z,21.88
2022-08-26T10:00:27.600Z,21.98
2022-08-26T10:02:58.263Z,21.91
2022-08-26T10:05:39.759Z,21.99
2022-08-26T10:08:25.042Z,22.04
2022-08-26T10:10:53.710Z,22.13
2022-08-26T10:13:26.650Z,22.20
2022-08-26T10:16:02.451Z,22.26
2022-08-26T10:18:34.775Z,22.32
2022-08-26T10:21:07.410Z,22.28
2022-08-26T10:26:19.280Z,22.49
2022-08-26T10:28:52.820Z,22.47
2022-08-26T10:31:28.614Z,22.37
2022-08-26T10:34:00.511Z,22.33
2022-08-26T10:37:14.568Z,22.43
2022-08-26T10:39:42.969Z,22.49
2022-08-26T10:42:17.824Z,22.55
2022-08-26T10:44:50.664Z,22.53
2022-08-26T10:47:21.694Z,22.45
2022-08-26T10:49:57.502Z,22.36
2022-08-26T10:52:39.291Z,22.23
2022-08-26T10:55:16.069Z,22.36
2022-08-26T10:57:50.663Z,22.36
2022-08-26T11:00:40.793Z,22.43
2022-08-26T11:03:24.590Z,22.45
2022-08-26T11:06:21.156Z,22.43
2022-08-26T11:08:49.906Z,22.37
2022-08-26T11:11:45.277Z,22.42
2022-08-26T11:14:42.048Z,22.28
2022-08-26T11:17:58.194Z,22.19
2022-08-26T11:20:41.519Z,22.12
2022-08-26T11:23:50.708Z,22.10
2022-08-26T11:26:32.804Z,22.09
2022-08-26T11:29:13.551Z,22.09
2022-08-26T11:31:56.997Z,22.22
2022-08-26T11:34:53.958Z,22.10
2022-08-26T11:37:25.802Z,22.16
2022-08-26T11:39:57.181Z,22.16
2022-08-26T11:42:33.217Z,22.12
2022-08-26T11:45:05.673Z,22.08
2022-08-26T11:47:33.896Z,22.08
2022-08-26T11:50:10.863Z,22.06
2022-08-26T11:52:38.726Z,22.10
2022-08-26T11:55:11.096Z,22.06
2022-08-26T11:57:44.850Z,22.09
2022-08-26T12:00:22.643Z,22.12
2022-08-26T12:02:52.665Z,22.17
2022-08-26T12:05:27.212Z,22.17
2022-08-26T12:08:02.315Z,22.15
2022-08-26T12:10:34.248Z,22.05
2022-08-26T12:13:04.715Z,21.92
2022-08-26T12:15:34.911Z,21.86
2022-08-26T12:18:28.574Z,21.85
2022-08-26T12:21:00.430Z,21.86
2022-08-26T12:23:40.269Z,22.06
2022-08-26T12:26:14.161Z,22.06
2022-08-26T12:28:47.039Z,22.15
2022-08-26T12:31:25.502Z,22.02
2022-08-26T12:33:54.623Z,22.04
2022-08-26T12:36:28.716Z,22.10
2022-08-26T12:38:58.523Z,22.10
2022-08-26T12:41:50.531Z,22.13
2022-08-26T12:44:53.381Z,22.12
2022-08-26T12:47:33.909Z,22.20
2022-08-26T12:50:12.456Z,22.25
2022-08-26T12:52:52.203Z,22.33
2022-08-26T12:55:22.678Z,22.39
2022-08-26T12:58:14.743Z,22.23
2022-08-26T13:00:44.888Z,22.08
2022-08-26T13:03:38.063Z,21.96
2022-08-26T13:06:29.722Z,21.85
2022-08-26T13:08:59.470Z,21.81
2022-08-26T13:11:31.571Z,21.82
2022-08-26T13:14:03.083Z,21.71
2022-08-26T13:16:36.227Z,21.82
2022-08-26T13:19:05.635Z,21.98
2022-08-26T13:21:43.538Z,21.99
2022-08-26T13:24:13.989Z,21.95
2022-08-26T13:26:42.805Z,21.98
2022-08-26T13:29:12.988Z,21.84
2022-08-26T13:31:43.944Z,21.71
2022-08-26T13:34:15.307Z,21.74
2022-08-26T13:36:44.952Z,21.79
2022-08-26T13:39:13.379Z,21.73
2022-08-26T13:41:42.233Z,21.68
2022-08-26T13:44:12.151Z,21.65
2022-08-26T13:46:40.191Z,21.71
2022-08-26T13:49:08.548Z,21.82
2022-08-26T13:51:36.472Z,21.57
2022-08-26T13:54:05.538Z,21.85
2022-08-26T13:56:34.162Z,21.73
2022-08-26T13:59:02.917Z,21.61
2022-08-26T14:01:33.468Z,21.43
2022-08-26T14:04:02.647Z,21.23
2022-08-26T14:06:30.924Z,21.19
2022-08-26T14:09:00.285Z,21.10
2022-08-26T14:11:28.930Z,21.10
2022-08-26T14:14:05.175Z,21.03
2022-08-26T14:16:37.575Z,21.13
2022-08-26T14:19:25.421Z,21.26
2022-08-26T14:21:53.498Z,21.28
2022-08-26T14:24:21.891Z,21.17
2022-08-26T14:26:49.878Z,21.11
2022-08-26T14:29:17.807Z,21.06
2022-08-26T14:31:47.010Z,20.99
2022-08-26T14:34:15.212Z,20.80
2022-08-26T14:36:43.477Z,20.77
2022-08-26T14:39:14.603Z,20.61
2022-08-26T14:41:54.426Z,20.73
2022-08-26T14:44:25.374Z,20.68
2022-08-26T14:46:55.039Z,20.77
2022-08-26T14:49:24.364Z,20.86
2022-08-26T14:51:52.273Z,20.94
2022-08-26T14:54:20.435Z,20.92
2022-08-26T14:56:50.168Z,20.85
2022-08-26T14:59:21.122Z,20.59
2022-08-26T15:01:50.363Z,20.52
2022-08-26T15:04:19.943Z,20.62
2022-08-26T15:06:48.474Z,20.56
2022-08-26T15:09:16.891Z,20.61
2022-08-26T15:11:44.823Z,20.59
2022-08-26T15:14:19.441Z,20.57
2022-08-26T15:16:48.456Z,20.48
2022-08-26T15:19:16.769Z,20.49
2022-08-26T15:21:47.238Z,20.48
2022-08-26T15:24:17.780Z,20.42
2022-08-26T15:26:48.296Z,20.41
2022-08-26T15:29:16.553Z,20.35
2022-08-26T15:31:44.487Z,20.38
2022-08-26T15:34:16.759Z,20.57
2022-08-26T15:36:47.857Z,20.62
2022-08-26T15:39:17.386Z,20.49
2022-08-26T15:41:46.047Z,20.35
2022-08-26T15:44:17.698Z,20.35
2022-08-26T15:46:45.864Z,20.35
2022-08-26T15:49:17.796Z,20.24
2022-08-26T15:51:50.338Z,20.10
2022-08-26T15:54:21.721Z,20.29
2022-08-26T15:56:52.168Z,20.24
2022-08-26T15:59:22.182Z,20.21
2022-08-26T16:01:50.602Z,20.29
2022-08-26T16:04:18.663Z,20.22
2022-08-26T16:06:50.214Z,20.20
2022-08-26T16:09:18.822Z,20.20
2022-08-26T16:11:46.689Z,20.25
2022-08-26T16:14:14.547Z,20.28
2022-08-26T16:16:42.646Z,20.39
2022-08-26T16:19:11.570Z,20.46
2022-08-26T16:21:40.557Z,20.62
2022-08-26T16:24:10.361Z,20.59
2022-08-26T16:26:40.470Z,20.73
2022-08-26T16:29:10.622Z,20.79
2022-08-26T16:31:39.108Z,20.87
2022-08-26T16:34:07.779Z,20.89
2022-08-26T16:36:36.916Z,20.87
2022-08-26T16:39:05.970Z,21.00
2022-08-26T16:41:35.307Z,21.04
2022-08-26T16:44:03.760Z,21.11
2022-08-26T16:46:31.750Z,21.14
2022-08-26T16:49:03.442Z,21.00
2022-08-26T16:51:32.378Z,21.00
2022-08-26T16:54:06.982Z,21.06
2022-08-26T16:56:36.757Z,20.97
2022-08-26T16:59:05.768Z,21.06
2022-08-26T17:01:33.575Z,21.02
2022-08-26T17:04:01.535Z,20.85
2022-08-26T17:06:29.720Z,20.83
2022-08-26T17:08:57.588Z,20.85
2022-08-26T17:11:25.443Z,20.86
2022-08-26T17:13:54.659Z,20.76
2022-08-26T17:16:26.589Z,20.72
2022-08-26T17:18:56.045Z,20.61
2022-08-26T17:21:23.923Z,20.59
2022-08-26T17:23:51.787Z,20.57
2022-08-26T17:26:19.663Z,20.53
2022-08-26T17:28:47.760Z,20.52
2022-08-26T17:31:17.159Z,20.51
2022-08-26T17:33:47.846Z,20.39
2022-08-26T17:36:18.694Z,20.32
2022-08-26T17:38:46.649Z,20.24
2022-08-26T17:41:17.768Z,20.18
2022-08-26T17:43:45.951Z,20.14
2022-08-26T17:46:14.336Z,20.14
2022-08-26T17:48:43.889Z,20.10
2022-08-26T17:51:13.356Z,20.10
2022-08-26T17:53:42.207Z,20.11
2022-08-26T17:56:12.974Z,20.07
2022-08-26T17:58:47.956Z,20.07
2022-08-26T18:01:18.908Z,20.07
2022-08-26T18:03:48.275Z,20.17
2022-08-26T18:06:16.561Z,20.17
2022-08-26T18:08:44.934Z,20.12
2022-08-26T18:11:14.973Z,20.14
2022-08-26T18:13:47.021Z,20.07
2022-08-26T18:16:17.888Z,20.10
2022-08-26T18:18:46.456Z,20.05
2022-08-26T18:21:17.850Z,20.08
2022-08-26T18:23:46.672Z,20.07
2022-08-26T18:26:18.028Z,20.01
2022-08-26T18:28:45.951Z,20.03
2022-08-26T18:31:13.930Z,20.00
2022-08-26T18:33:43.004Z,19.97
2022-08-26T18:36:17.116Z,19.91
2022-08-26T18:38:45.090Z,19.95
2022-08-26T18:41:14.253Z,19.87
2022-08-26T18:43:42.421Z,19.84
2022-08-26T18:46:11.435Z,19.83
2022-08-26T18:48:40.537Z,19.78
2022-08-26T18:51:08.516Z,19.88
2022-08-26T18:53:42.411Z,19.87
2022-08-26T18:56:10.247Z,19.85
2022-08-26T18:58:38.272Z,19.83
2022-08-26T19:01:06.291Z,19.84
2022-08-26T19:03:34.370Z,19.80
2022-08-26T19:06:02.253Z,19.90
2022-08-26T19:08:30.137Z,19.81
2022-08-26T19:11:00.480Z,19.74
2022-08-26T19:13:28.421Z,19.75
2022-08-26T19:15:56.290Z,19.74
2022-08-26T19:18:24.156Z,19.70
2022-08-26T19:20:52.014Z,19.73
2022-08-26T19:23:31.595Z,19.67
2022-08-26T19:26:04.618Z,19.63
2022-08-26T19:28:32.634Z,19.71
2022-08-26T19:31:00.873Z,19.80
2022-08-26T19:33:28.840Z,19.70
2022-08-26T19:35:56.877Z,19.59
2022-08-26T19:38:24.747Z,19.64
2022-08-26T19:40:55.677Z,19.63
2022-08-26T19:43:24.949Z,19.56
2022-08-26T19:45:53.230Z,19.54
2022-08-26T19:48:21.204Z,19.57
2022-08-26T19:50:49.547Z,19.46
2022-08-26T19:53:17.403Z,19.42
2022-08-26T19:55:45.307Z,19.45
2022-08-26T19:58:13.409Z,19.50
2022-08-26T20:00:42.807Z,19.50
2022-08-26T20:03:15.834Z,19.47
2022-08-26T20:05:44.083Z,19.69
2022-08-26T20:08:22.066Z,19.66
2022-08-26T20:10:51.405Z,19.67
2022-08-26T20:13:19.506Z,19.67
2022-08-26T20:15:48.940Z,19.59
2022-08-26T20:18:34.069Z,19.66
2022-08-26T20:21:19.321Z,19.62
2022-08-26T20:23:47.281Z,19.59
2022-08-26T20:26:15.198Z,19.66
2022-08-26T20:28:43.064Z,19.64
2022-08-26T20:31:12.658Z,19.57
2022-08-26T20:33:46.372Z,19.49
2022-08-26T20:36:15.924Z,19.45
2022-08-26T20:38:45.934Z,19.45
2022-08-26T20:41:14.044Z,19.46
2022-08-26T20:43:43.570Z,19.63
2022-08-26T20:46:18.117Z,19.69
2022-08-26T20:48:47.592Z,19.57
2022-08-26T20:51:15.660Z,19.63
2022-08-26T20:53:44.245Z,19.56
2022-08-26T20:56:14.066Z,19.59
2022-08-26T20:58:42.426Z,19.53
2022-08-26T21:01:20.116Z,19.60
2022-08-26T21:03:48.497Z,19.56
2022-08-26T21:06:16.413Z,19.42
2022-08-26T21:08:44.922Z,19.53
2022-08-26T21:11:13.401Z,19.62
2022-08-26T21:14:01.504Z,19.56
2022-08-26T21:16:30.680Z,19.45
2022-08-26T21:19:00.478Z,19.49
2022-08-26T21:21:29.075Z,19.52
2022-08-26T21:23:57.527Z,19.45
2022-08-26T21:26:25.738Z,19.40
2022-08-26T21:28:54.172Z,19.33
2022-08-26T21:31:23.808Z,19.49
2022-08-26T21:33:54.025Z,19.53
2022-08-26T21:36:22.024Z,19.46
2022-08-26T21:38:49.922Z,19.50
2022-08-26T21:41:22.054Z,19.42
2022-08-26T21:43:51.253Z,19.47
2022-08-26T21:46:22.450Z,19.26
2022-08-26T21:48:55.134Z,19.24
2022-08-26T21:51:25.373Z,19.36
2022-08-26T21:53:53.740Z,19.53
2022-08-26T21:56:23.190Z,19.36
2022-08-26T21:58:52.479Z,19.39
2022-08-26T22:01:23.284Z,19.43
2022-08-26T22:03:53.353Z,19.45
2022-08-26T22:06:23.542Z,19.27
2022-08-26T22:08:51.748Z,19.27
2022-08-26T22:11:19.770Z,19.12
2022-08-26T22:13:49.556Z,19.09
2022-08-26T22:16:18.775Z,19.06
2022-08-26T22:18:46.873Z,18.95
2022-08-26T22:21:18.779Z,18.91
2022-08-26T22:23:47.408Z,18.98
2022-08-26T22:26:25.611Z,18.94
2022-08-26T22:28:58.802Z,19.03
2022-08-26T22:31:37.497Z,19.08
2022-08-26T22:34:08.413Z,19.08
2022-08-26T22:36:43.128Z,18.87
2022-08-26T22:39:13.101Z,18.84
2022-08-26T22:41:41.249Z,18.89
2022-08-26T22:44:09.111Z,18.92
2022-08-26T22:46:38.554Z,19.12
2022-08-26T22:49:07.129Z,19.06
2022-08-26T22:51:35.031Z,18.85
2022-08-26T22:54:04.660Z,18.85
2022-08-26T22:56:32.566Z,18.94
2022-08-26T22:59:00.447Z,18.84
2022-08-26T23:01:28.797Z,18.81
2022-08-26T23:03:56.859Z,18.69
2022-08-26T23:06:24.710Z,18.73
2022-08-26T23:08:53.100Z,18.87
2022-08-26T23:11:22.799Z,18.71
2022-08-26T23:13:50.689Z,18.67
2022-08-26T23:16:18.563Z,18.69
2022-08-26T23:18:46.860Z,18.58
2022-08-26T23:21:15.176Z,18.67
2022-08-26T23:23:44.270Z,18.73
2022-08-26T23:26:17.397Z,18.73
2022-08-26T23:28:47.042Z,18.68
2022-08-26T23:31:15.319Z,18.62
2022-08-26T23:34:00.437Z,18.69
2022-08-26T23:36:31.003Z,18.64
2022-08-26T23:39:03.112Z,18.51
2022-08-26T23:41:30.974Z,18.51
2022-08-26T23:44:03.467Z,18.65
2022-08-26T23:46:32.203Z,18.61
2022-08-26T23:48:59.985Z,18.69
2022-08-26T23:51:46.034Z,18.55
2022-08-26T23:54:14.898Z,18.51
2022-08-26T23:56:43.068Z,18.61
2022-08-26T23:59:12.863Z,18.64
